Latest Weather Observations for Meekatharra

IDW60801

Issued at 9:32 pm WST Sunday 30 August 2015 (issued every 30 minutes, with the page automatically refreshed every 10 minutes)

About weather observations | Map of weather stations | Latest weather observations for WA | Other Formats
Station Details ID: 007045 Name: MEEKATHARRA AIRPORT Lat: -26.61 Lon: 118.54 Height: 517.0 m
Data from the previous 72 hours. | See also: Recent months at Meekatharra
Date/Time
WST
Temp
°C
App
Temp
°C
Dew
Point
Rel
Hum
%
Delta-T
°C
Wind Press
QNH
hPa
Press
MSL
hPa
Rain
since 9 am
mm
Dir
 
Spd
km/h
Gust
km/h
Spd
kts
Gust
kts
30/09:30pm 19.2 16.7 8.0 48 5.9 SW 11 15 6 8 1020.3 - 0.0
30/09:00pm 19.4 16.5 8.0 47 6.0 SW 13 19 7 10 1020.4 1019.5 0.0
30/08:30pm 19.4 15.8 8.5 49 5.8 WSW 17 24 9 13 1020.3 - 0.0
30/08:00pm 19.9 17.4 6.7 42 6.8 WSW 9 22 5 12 1020.0 - 0.0
30/07:30pm 20.1 17.2 4.9 37 7.6 SSW 9 13 5 7 1019.6 - 0.0
30/07:00pm 20.3 17.3 4.3 35 7.9 S 9 11 5 6 1019.3 - 0.0
30/06:30pm 20.9 17.8 3.8 32 8.4 SW 9 13 5 7 1019.0 - 0.0
30/06:00pm 21.3 17.4 3.3 30 8.8 SSW 13 15 7 8 1018.9 1018.0 0.0
30/05:30pm 21.8 17.8 2.9 29 9.2 SW 13 20 7 11 1018.7 - 0.0
30/05:00pm 22.3 17.0 2.8 27 9.5 SW 20 30 11 16 1018.5 - 0.0
30/04:30pm 22.6 18.3 3.0 27 9.6 WSW 15 33 8 18 1018.3 - 0.0
30/04:00pm 22.3 17.5 2.8 27 9.5 WSW 17 24 9 13 1018.3 - 0.0
30/03:30pm 22.9 18.4 2.3 26 10.0 WSW 15 24 8 13 1018.3 - 0.0
30/03:00pm 23.2 19.0 1.8 24 10.3 SW 13 20 7 11 1018.3 1017.4 0.0
30/02:30pm 24.3 18.9 1.5 22 11.0 W 19 32 10 17 1018.3 - 0.0
30/02:00pm 22.4 17.5 2.0 26 9.8 WSW 17 26 9 14 1018.5 - 0.0
30/01:30pm 23.9 19.3 1.8 23 10.7 W 15 24 8 13 1018.6 - 0.0
30/01:00pm 22.5 18.0 2.2 26 9.8 WSW 15 26 8 14 1018.9 - 0.0
30/12:30pm 22.6 18.3 3.0 27 9.6 S 15 20 8 11 1019.4 - 0.0
30/12:00pm 22.4 18.4 2.6 27 9.6 S 13 22 7 12 1019.8 1019.0 0.0
30/11:30am 20.9 16.8 4.1 33 8.3 SSW 15 28 8 15 1020.5 - 0.0
30/11:00am 20.3 16.9 5.7 38 7.4 S 13 24 7 13 1020.8 - 0.0
30/10:30am 19.8 16.5 6.6 42 6.8 S 13 17 7 9 1021.0 - 0.0
30/10:00am 19.3 15.4 7.1 45 6.3 S 17 24 9 13 1021.2 - 0.0
30/09:30am 18.0 14.5 7.1 49 5.6 S 15 24 8 13 1021.1 - 0.0
30/09:00am 17.5 13.9 8.4 55 4.8 S 17 22 9 12 1021.0 1020.2 0.0
30/08:30am 16.4 12.7 9.5 63 3.7 S 19 26 10 14 1020.9 - 0.0
30/08:00am 15.6 13.0 9.4 66 3.3 S 13 20 7 11 1020.8 - 0.0
30/07:30am 14.6 12.4 7.9 64 3.4 S 9 13 5 7 1020.3 - 0.0
30/07:00am 12.4 10.4 6.2 66 3.0 SSE 6 7 3 4 1019.9 - 0.0
30/06:30am 11.3 9.1 6.3 71 2.4 SSE 7 9 4 5 1019.2 - 0.0
30/06:00am 11.9 9.0 6.3 68 2.7 S 11 13 6 7 1018.7 1017.8 0.0
30/05:30am 12.2 9.3 6.5 68 2.8 S 11 15 6 8 1018.5 - 0.0
30/05:00am 12.4 9.0 6.0 65 3.1 S 13 15 7 8 1018.2 - 0.0
30/04:30am 13.2 9.8 6.0 61 3.5 S 13 17 7 9 1017.7 - 0.0
30/04:00am 13.9 10.2 6.2 59 3.8 S 15 17 8 9 1017.7 - 0.0
30/03:30am 14.4 10.2 5.6 55 4.3 SSW 17 20 9 11 1017.6 - 0.0
30/03:00am 14.8 10.4 4.5 50 4.9 SSW 17 24 9 13 1017.5 1016.7 0.0
30/02:30am 14.5 10.9 2.7 45 5.4 SSW 11 15 6 8 1017.2 - 0.0
30/02:00am 14.7 11.2 3.3 46 5.3 SSW 11 13 6 7 1017.1 - 0.0
30/01:30am 14.9 11.7 3.0 44 5.5 SSW 9 11 5 6 1017.2 - 0.0
30/01:00am 15.7 12.1 3.1 43 5.9 SSW 11 13 6 7 1017.2 - 0.0
30/12:30am 15.6 12.3 2.6 41 6.0 SSW 9 11 5 6 1017.1 - 0.0
30/12:00am 16.4 12.3 2.0 38 6.6 SW 13 15 7 8 1017.0 1016.1 0.0
 
Date/Time
WST
Temp
°C
App
Temp
°C
Dew
Point
Rel
Hum
%
Delta-T
°C
Wind Press
QNH
hPa
Press
MSL
hPa
Rain
since 9 am
mm
Dir
 
Spd
km/h
Gust
km/h
Spd
kts
Gust
kts
29/11:47pm 16.7 13.0 2.2 37 6.7 SW 11 15 6 8 1017.1 - 0.0
29/11:30pm 16.9 12.7 1.9 36 6.9 SW 13 15 7 8 1017.0 - 0.0
29/11:20pm 17.0 13.2 1.7 35 7.0 SW 11 15 6 8 1017.0 - 0.0
29/11:00pm 17.1 12.9 1.6 35 7.1 SW 13 15 7 8 1017.1 - 0.0
29/10:30pm 17.5 13.2 1.3 33 7.4 SW 13 15 7 8 1017.3 - 0.0
29/10:00pm 18.0 14.2 1.5 33 7.6 SW 11 13 6 7 1017.4 - 0.0
29/09:30pm 18.9 14.7 1.4 31 8.1 SW 13 15 7 8 1017.4 - 0.0
29/09:00pm 19.7 15.5 1.8 30 8.4 SW 13 17 7 9 1017.4 1016.6 0.0
29/08:30pm 20.4 16.0 2.7 31 8.5 SW 15 19 8 10 1017.2 - 0.0
29/08:00pm 20.7 17.1 3.2 31 8.5 WSW 11 15 6 8 1016.9 - 0.0
29/07:30pm 21.3 17.4 3.3 30 8.8 W 13 17 7 9 1016.4 - 0.0
29/07:00pm 22.0 18.0 3.0 28 9.3 W 13 19 7 10 1016.1 - 0.0
29/06:30pm 22.7 18.2 1.9 25 10.0 W 15 30 8 16 1015.5 - 0.0
29/06:00pm 23.5 18.1 1.4 23 10.6 W 19 28 10 15 1015.1 1014.2 0.0
29/05:30pm 24.5 19.4 0.5 20 11.4 W 17 26 9 14 1014.7 - 0.0
29/05:00pm 25.4 19.9 0.5 19 11.9 W 19 30 10 16 1014.2 - 0.0
29/04:30pm 26.2 20.1 0.4 18 12.4 WSW 22 33 12 18 1013.9 - 0.0
29/04:00pm 26.1 20.5 0.1 18 12.4 SW 19 26 10 14 1013.7 - 0.0
29/03:30pm 26.4 20.2 -0.4 17 12.7 W 22 32 12 17 1013.5 - 0.0
29/03:00pm 27.4 21.5 -2.2 14 13.7 NW 19 28 10 15 1013.4 1012.5 0.0
29/02:30pm 26.8 20.0 -1.5 15 13.2 WNW 24 35 13 19 1013.5 - 0.0
29/02:00pm 27.3 20.4 -3.0 13 13.8 NNW 24 32 13 17 1013.5 - 0.0
29/01:30pm 26.6 21.8 0.5 18 12.6 W 15 22 8 12 1013.8 - 0.0
29/01:00pm 25.9 20.5 1.2 20 12.0 W 19 28 10 15 1014.3 - 0.0
29/12:30pm 26.0 20.5 1.8 20 11.9 W 20 28 11 15 1014.7 - 0.0
29/12:00pm 25.7 20.5 2.2 21 11.6 WNW 19 30 10 16 1015.0 1014.1 0.0
29/11:30am 24.6 19.1 1.8 22 11.1 WNW 20 28 11 15 1015.4 - 0.0
29/11:00am 23.1 17.8 2.0 25 10.2 WNW 19 30 10 16 1015.8 - 0.0
29/10:30am 23.0 18.4 1.8 24 10.2 WNW 15 24 8 13 1016.1 - 0.0
29/10:00am 22.2 18.1 2.3 27 9.6 NW 13 17 7 9 1016.1 - 0.0
29/09:30am 21.6 17.9 2.6 28 9.2 NW 11 19 6 10 1015.9 - 0.0
29/09:00am 20.4 15.9 2.1 29 8.7 NW 15 20 8 11 1015.8 1015.0 0.0
29/08:30am 20.2 15.4 2.7 31 8.4 NNW 17 20 9 11 1015.8 - 0.0
29/08:00am 18.3 13.9 2.6 35 7.4 N 15 20 8 11 1015.3 - 0.0
29/07:30am 16.2 12.1 2.3 39 6.4 N 13 19 7 10 1015.1 - 0.0
29/07:00am 13.8 10.0 1.7 44 5.4 N 11 15 6 8 1014.7 - 0.0
29/06:30am 12.5 9.2 2.2 49 4.6 N 9 11 5 6 1014.3 - 0.0
29/06:00am 12.9 9.1 1.9 47 4.9 NNE 11 15 6 8 1013.9 1013.0 0.0
29/05:30am 12.8 9.5 2.6 50 4.6 NNE 9 13 5 7 1013.7 - 0.0
29/05:00am 13.5 9.8 2.5 47 5.0 NE 11 13 6 7 1013.6 - 0.0
29/04:30am 14.4 10.6 2.0 43 5.6 NNE 11 13 6 7 1013.6 - 0.0
29/04:00am 14.6 11.2 2.0 42 5.7 N 9 13 5 7 1013.7 - 0.0
29/03:30am 14.2 10.8 2.0 43 5.5 NW 9 9 5 5 1013.7 - 0.0
29/03:00am 14.4 11.6 2.9 46 5.3 E 7 9 4 5 1013.8 1012.9 0.0
29/02:30am 15.3 13.8 2.8 43 5.8 CALM 0 0 0 0 1014.1 - 0.0
29/02:00am 15.6 12.8 2.3 40 6.1 SSW 6 6 3 3 1014.3 - 0.0
29/01:30am 17.8 14.4 1.8 34 7.4 SSW 9 13 5 7 1014.5 - 0.0
29/01:00am 18.8 14.6 1.6 31 8.0 S 13 13 7 7 1014.5 - 0.0
29/12:30am 20.4 15.7 1.1 27 9.0 SSW 15 19 8 10 1014.5 - 0.0
29/12:00am 21.0 17.2 1.5 27 9.2 SSW 11 15 6 8 1014.8 1013.9 0.0
 
Date/Time
WST
Temp
°C
App
Temp
°C
Dew
Point
Rel
Hum
%
Delta-T
°C
Wind Press
QNH
hPa
Press
MSL
hPa
Rain
since 9 am
mm
Dir
 
Spd
km/h
Gust
km/h
Spd
kts
Gust
kts
28/11:30pm 22.2 16.9 1.7 26 9.8 SW 19 26 10 14 1015.0 - 0.0
28/11:00pm 22.8 17.4 1.4 24 10.2 W 19 26 10 14 1015.5 - 0.0
28/10:30pm 23.0 16.6 0.7 23 10.5 WNW 24 33 13 18 1015.8 - 0.0
28/10:00pm 22.0 19.4 3.0 28 9.3 NNW 6 7 3 4 1015.7 - 0.0
28/09:30pm 22.8 19.9 1.4 24 10.2 W 6 7 3 4 1015.9 - 0.0
28/09:00pm 21.7 18.9 2.1 27 9.4 N 6 7 3 4 1015.9 1015.1 0.0
28/08:30pm 22.9 19.9 0.5 22 10.5 N 6 11 3 6 1015.6 - 0.0
28/08:00pm 24.7 21.1 0.9 21 11.4 N 9 15 5 8 1015.4 - 0.0
28/07:30pm 23.5 19.4 -0.1 21 11.0 NE 11 13 6 7 1015.4 - 0.0
28/07:00pm 22.4 19.3 1.4 25 10.0 NW 7 9 4 5 1015.0 - 0.0
28/06:30pm 24.3 20.7 0.5 21 11.3 NW 9 11 5 6 1014.6 - 0.0
28/06:00pm 25.5 20.8 -2.1 16 12.6 NNW 13 17 7 9 1014.4 1013.5 0.0
28/05:30pm 26.7 19.9 -4.7 12 13.8 NNW 22 28 12 15 1013.9 - 0.0
28/05:00pm 27.6 22.3 -3.6 12 14.1 NW 15 24 8 13 1013.8 - 0.0
28/04:30pm 28.1 22.8 -3.2 12 14.3 WNW 15 20 8 11 1013.7 - 0.0
28/04:00pm 27.7 20.9 -4.9 11 14.4 NW 22 35 12 19 1013.7 - 0.0
28/03:30pm 27.6 20.5 -4.1 12 14.2 NNW 24 35 13 19 1013.8 - 0.0
28/03:00pm 28.4 21.7 -3.9 12 14.6 NNW 22 33 12 18 1014.1 1013.2 0.0
28/02:30pm 28.9 23.7 -3.0 12 14.7 NW 15 26 8 14 1014.3 - 0.0
28/02:00pm 27.6 22.7 -3.2 13 14.0 NNW 13 17 7 9 1014.6 - 0.0
28/01:30pm 27.6 21.8 -1.8 14 13.7 N 19 30 10 16 1015.0 - 0.0
28/01:00pm 27.3 22.5 -2.6 14 13.7 N 13 19 7 10 1015.5 - 0.0
28/12:30pm 27.3 21.6 -4.0 12 14.0 NNW 17 30 9 16 1016.1 - 0.0
28/12:00pm 26.6 20.3 -5.6 11 13.9 N 19 32 10 17 1016.7 1015.8 0.0
28/11:30am 25.9 18.9 -6.7 11 13.7 N 22 30 12 16 1017.1 - 0.0
28/11:00am 25.1 17.4 -6.9 11 13.3 N 26 37 14 20 1017.4 - 0.0
28/10:30am 24.4 16.6 -7.4 11 13.0 NNE 26 39 14 21 1017.8 - 0.0
28/10:00am 23.3 15.5 -7.9 12 12.5 NNE 26 39 14 21 1018.2 - 0.0
28/09:30am 22.0 14.1 -8.4 12 11.9 N 26 37 14 20 1018.3 - 0.0
28/09:00am 21.0 13.5 -8.4 13 11.4 NNE 24 37 13 20 1018.4 1017.5 0.0
28/08:30am 19.9 13.3 -7.0 15 10.6 NNE 20 30 11 16 1018.3 - 0.0
28/08:00am 18.6 12.3 -6.2 18 9.8 NE 19 28 10 15 1018.2 - 0.0
28/07:30am 17.1 11.9 -6.4 19 9.1 NE 13 22 7 12 1018.0 - 0.0
28/07:00am 15.9 11.2 -5.3 23 8.3 ENE 11 15 6 8 1017.8 - 0.0
28/06:30am 15.3 9.8 -5.7 23 8.1 ENE 15 19 8 10 1017.5 - 0.0
28/06:00am 15.7 10.6 -5.3 23 8.2 ENE 13 19 7 10 1017.4 1016.6 0.0
28/05:30am 15.4 10.4 -4.6 25 7.9 ENE 13 15 7 8 1017.2 - 0.0
28/05:00am 15.7 10.7 -4.4 25 8.0 NE 13 17 7 9 1017.2 - 0.0
28/04:30am 16.3 11.0 -4.0 24 8.2 NE 15 19 8 10 1017.1 - 0.0
28/04:00am 16.2 11.5 -2.1 28 7.7 NE 13 17 7 9 1017.0 - 0.0
28/03:30am 16.3 11.4 -0.8 31 7.4 NE 15 20 8 11 1016.9 - 0.0
28/03:00am 16.8 12.3 -0.6 30 7.6 NE 13 15 7 8 1017.0 1016.1 0.0
28/02:30am 17.9 12.9 -1.5 26 8.4 NE 15 20 8 11 1017.1 - 0.0
28/02:00am 17.9 13.4 -0.1 29 8.0 NE 13 17 7 9 1017.5 - 0.0
28/01:30am 16.9 12.8 2.5 38 6.7 ENE 13 15 7 8 1017.5 - 0.0
28/01:00am 16.1 12.6 1.5 37 6.6 ENE 9 11 5 6 1017.6 - 0.0
28/12:30am 16.8 13.7 1.1 34 7.1 ENE 7 9 4 5 1017.8 - 0.0
28/12:00am 17.3 13.3 0.6 32 7.5 SSE 11 13 6 7 1017.9 1017.1 0.0
 
Date/Time
WST
Temp
°C
App
Temp
°C
Dew
Point
Rel
Hum
%
Delta-T
°C
Wind Press
QNH
hPa
Press
MSL
hPa
Rain
since 9 am
mm
Dir
 
Spd
km/h
Gust
km/h
Spd
kts
Gust
kts
27/11:30pm 17.5 13.9 0.9 32 7.5 ESE 9 11 5 6 1018.2 - 0.0
27/11:00pm 18.3 14.7 0.7 30 8.0 S 9 13 5 7 1018.0 - 0.0
27/10:30pm 19.2 13.6 -0.2 27 8.7 SE 19 22 10 12 1018.3 - 0.0
27/10:00pm 19.5 15.2 1.1 29 8.5 S 13 22 7 12 1018.7 - 0.0

Other Formats:

Comma delimited format used in spreadsheet applications
http://www.bom.gov.au/fwo/IDW60801/IDW60801.94430.axf

JavaScript Object Notation format (JSON) in row-major order
http://www.bom.gov.au/fwo/IDW60801/IDW60801.94430.json